Time;durP1;ratioP1;P1;durP2;ratioP2;P2;SDS_P1;SDS_P2;PMS_P1;PMS_P2;Temp;Humidity;BMP_temperature;BMP_pressure;BME280_temperature;BME280_humidity;BME280_pressure;Samples;Min_cycle;Max_cycle;Signal;HPM_P1;HPM_P2
2021/05/28 00:10:04;;;;;;;7.72;3.40;;;11.20;99.90;;;;;;6196739;22;20008;-89
2021/05/28 00:30:30;;;;;;;5.53;2.90;;;11.30;99.90;;;;;;6214490;22;20038;-85
2021/05/28 00:32:59;;;;;;;7.00;3.60;;;11.30;99.90;;;;;;6250107;22;20004;-88
2021/05/28 01:04:55;;;;;;;5.93;3.95;;;11.20;99.90;;;;;;6254949;22;20044;-87
2021/05/28 01:07:23;;;;;;;8.55;4.60;;;11.20;99.90;;;;;;6212441;23;20016;-88
2021/05/28 01:09:51;;;;;;;10.57;4.30;;;11.20;99.90;;;;;;6213268;23;20012;-89
2021/05/28 01:12:20;;;;;;;8.43;4.60;;;11.20;99.90;;;;;;6239470;23;20019;-88
2021/05/28 01:14:53;;;;;;;11.32;4.55;;;11.20;99.90;;;;;;6216069;23;20023;-85
2021/05/28 01:17:32;;;;;;;11.35;4.65;;;11.30;99.90;;;;;;6216501;23;20008;-86
2021/05/28 01:41:17;;;;;;;8.95;5.47;;;11.30;99.90;;;;;;6228023;22;20012;-88
2021/05/28 01:43:50;;;;;;;8.43;5.40;;;11.20;99.90;;;;;;6223277;23;20042;-87
2021/05/28 01:46:20;;;;;;;8.27;5.45;;;11.10;99.90;;;;;;6241530;23;20015;-89
2021/05/28 01:48:51;;;;;;;8.65;5.88;;;11.00;99.90;;;;;;6239669;23;20326;-90
2021/05/28 01:51:19;;;;;;;12.25;6.40;;;11.00;99.90;;;;;;6213967;23;20008;-89
2021/05/28 01:53:47;;;;;;;9.43;6.35;;;11.00;99.90;;;;;;6211520;23;20016;-91
2021/05/28 01:56:15;;;;;;;;;;;11.00;99.90;;;;;;6211499;23;20067;-90
2021/05/28 01:58:51;;;;;;;9.52;5.75;;;11.00;99.90;;;;;;6241215;23;19924;-87
2021/05/28 02:01:18;;;;;;;10.48;5.32;;;11.00;99.90;;;;;;6219612;23;20247;-85
2021/05/28 02:03:46;;;;;;;10.85;5.43;;;11.10;99.90;;;;;;6239422;23;20018;-87
2021/05/28 02:06:14;;;;;;;10.98;4.85;;;11.10;99.90;;;;;;6218856;23;20020;-85
2021/05/28 02:08:44;;;;;;;11.80;4.65;;;11.10;99.90;;;;;;6275299;22;20019;-86
2021/05/28 02:11:12;;;;;;;7.40;4.60;;;11.10;99.90;;;;;;6241745;23;20015;-86
2021/05/28 02:13:45;;;;;;;8.82;4.30;;;10.90;99.90;;;;;;6211377;23;20015;-88
2021/05/28 02:16:17;;;;;;;12.85;4.57;;;10.80;99.90;;;;;;6219568;23;20012;-91
2021/05/28 02:18:47;;;;;;;8.43;4.15;;;10.70;99.90;;;;;;6245978;23;20012;-90
2021/05/28 02:21:21;;;;;;;8.70;4.18;;;10.70;99.90;;;;;;6218507;23;20016;-88
2021/05/28 02:23:49;;;;;;;9.23;4.40;;;10.60;99.90;;;;;;6218591;23;20011;-87
2021/05/28 02:26:16;;;;;;;7.30;3.95;;;10.60;99.90;;;;;;6239823;23;20039;-88
2021/05/28 02:28:47;;;;;;;17.05;4.70;;;10.60;99.90;;;;;;6261901;23;20004;-88
2021/05/28 02:31:16;;;;;;;7.82;4.05;;;10.60;99.90;;;;;;6226564;23;20255;-88
2021/05/28 02:33:44;;;;;;;7.28;4.45;;;10.60;99.90;;;;;;6273049;23;20004;-87
2021/05/28 02:36:12;;;;;;;6.95;4.40;;;10.60;99.90;;;;;;6251885;22;20008;-86
2021/05/28 02:41:33;;;;;;;9.38;5.20;;;10.60;99.90;;;;;;6250934;22;20023;-85
2021/05/28 02:44:05;;;;;;;16.33;5.63;;;10.50;99.90;;;;;;6247336;22;20011;-85
2021/05/28 02:46:37;;;;;;;9.27;5.20;;;10.50;99.90;;;;;;6251854;22;20012;-88
2021/05/28 02:49:08;;;;;;;11.00;5.55;;;10.40;99.90;;;;;;6202931;23;20037;-86
2021/05/28 02:51:39;;;;;;;12.38;6.63;;;10.40;99.90;;;;;;6247056;23;20004;-89
2021/05/28 02:54:10;;;;;;;8.63;5.25;;;10.40;99.90;;;;;;6243821;23;20012;-87
2021/05/28 02:56:40;;;;;;;12.60;6.28;;;10.30;99.90;;;;;;6211014;23;20013;-84
2021/05/28 02:59:11;;;;;;;15.48;6.65;;;10.30;99.90;;;;;;6213652;23;20008;-86
2021/05/28 03:01:38;;;;;;;11.88;7.20;;;10.20;99.90;;;;;;6216276;23;20015;-88
2021/05/28 03:04:07;;;;;;;13.20;7.80;;;10.20;99.90;;;;;;6216601;23;20019;-87
2021/05/28 03:06:38;;;;;;;14.75;6.85;;;10.00;99.90;;;;;;6236923;23;20247;-85
2021/05/28 03:09:08;;;;;;;14.80;7.60;;;10.00;99.90;;;;;;6213521;23;20008;-87
2021/05/28 03:11:43;;;;;;;12.27;8.68;;;10.00;99.90;;;;;;6244250;23;20024;-86
2021/05/28 03:14:14;;;;;;;14.38;8.00;;;10.00;99.90;;;;;;6241763;23;20273;-84
2021/05/28 03:16:41;;;;;;;15.45;7.30;;;10.00;99.90;;;;;;6221381;23;20013;-85
2021/05/28 03:19:18;;;;;;;;;;;10.00;99.90;;;;;;6223515;23;20000;-87
2021/05/28 03:24:44;;;;;;;14.57;8.63;;;10.00;99.90;;;;;;6243556;23;20013;-87
2021/05/28 03:27:15;;;;;;;11.20;8.00;;;10.00;99.90;;;;;;6242413;23;20020;-84
2021/05/28 03:38:37;;;;;;;16.67;7.82;;;10.20;99.90;;;;;;6190596;22;20020;-83
2021/05/28 03:41:11;;;;;;;11.73;8.10;;;10.20;99.90;;;;;;6271145;22;20011;-87
2021/05/28 04:01:20;;;;;;;8.55;6.47;;;10.60;99.90;;;;;;6212240;22;20008;-85
2021/05/28 04:27:19;;;;;;;11.93;8.15;;;10.60;99.90;;;;;;6229696;22;20004;-85
2021/05/28 04:32:55;;;;;;;10.32;7.68;;;10.60;99.90;;;;;;6217679;22;20787;-83
2021/05/28 04:35:25;;;;;;;12.95;9.65;;;10.60;99.90;;;;;;6194443;23;20019;-85
2021/05/28 04:37:53;;;;;;;14.15;9.20;;;10.60;99.90;;;;;;6190609;23;20009;-87
2021/05/28 04:40:23;;;;;;;13.68;9.90;;;10.60;99.90;;;;;;6194377;23;20008;-87
2021/05/28 04:42:55;;;;;;;13.43;9.25;;;10.70;99.90;;;;;;6220470;23;20004;-89
2021/05/28 04:45:26;;;;;;;13.98;9.25;;;10.70;99.90;;;;;;6216079;23;20005;-86
2021/05/28 04:47:56;;;;;;;13.85;9.38;;;10.80;99.90;;;;;;6195122;23;20016;-86
2021/05/28 04:50:31;;;;;;;20.02;9.40;;;10.80;99.90;;;;;;6193750;23;20012;-85
2021/05/28 04:53:00;;;;;;;15.75;9.07;;;10.90;99.90;;;;;;6193112;23;20011;-88
2021/05/28 04:58:24;;;;;;;11.80;9.07;;;11.10;99.90;;;;;;6216170;22;20008;-84
2021/05/28 05:00:55;;;;;;;15.63;8.68;;;11.20;99.90;;;;;;6249978;22;20011;-87
2021/05/28 05:12:19;;;;;;;13.88;8.50;;;11.30;99.90;;;;;;6263902;22;20036;-86
2021/05/28 05:14:47;;;;;;;15.02;8.73;;;11.30;99.90;;;;;;6191641;23;20010;-86
2021/05/28 05:17:14;;;;;;;16.03;8.63;;;11.20;99.90;;;;;;6244020;23;20027;-85
2021/05/28 05:19:45;;;;;;;12.45;8.70;;;11.40;99.90;;;;;;6218759;23;20262;-86
2021/05/28 05:22:27;;;;;;;13.85;8.98;;;11.40;99.90;;;;;;6215154;23;20016;-87
2021/05/28 05:24:57;;;;;;;14.52;8.48;;;11.30;99.90;;;;;;6262864;23;20011;-86
2021/05/28 05:27:25;;;;;;;12.70;8.40;;;11.50;99.90;;;;;;6213418;23;20013;-85
2021/05/28 05:29:56;;;;;;;14.80;7.90;;;11.50;99.90;;;;;;6257898;23;20016;-88
2021/05/28 05:32:27;;;;;;;10.90;6.88;;;11.60;99.90;;;;;;6239991;23;20015;-86
2021/05/28 05:34:58;;;;;;;10.07;7.18;;;11.60;99.90;;;;;;6205498;23;20009;-88
2021/05/28 05:37:27;;;;;;;10.05;6.95;;;11.60;99.90;;;;;;6231760;23;20052;-88
2021/05/28 05:40:01;;;;;;;13.98;7.20;;;11.60;99.90;;;;;;6207223;23;20224;-91
2021/05/28 05:42:36;;;;;;;9.85;7.32;;;11.60;99.90;;;;;;6207765;23;20012;-91
2021/05/28 05:45:07;;;;;;;12.55;7.40;;;11.70;99.90;;;;;;6229347;23;20019;-90
2021/05/28 05:47:35;;;;;;;17.27;6.97;;;11.70;99.90;;;;;;6228662;23;20008;-92
2021/05/28 05:50:12;;;;;;;10.32;6.45;;;11.70;99.90;;;;;;6217932;23;20001;-87
2021/05/28 05:52:47;;;;;;;10.50;6.75;;;11.80;99.90;;;;;;6185561;23;20027;-87
2021/05/28 05:55:18;;;;;;;15.48;6.55;;;11.90;99.90;;;;;;6230229;23;20028;-89
2021/05/28 05:57:48;;;;;;;8.63;6.18;;;12.00;99.90;;;;;;6206545;23;20040;-88
2021/05/28 06:00:20;;;;;;;11.63;6.70;;;12.10;99.90;;;;;;6239523;23;20019;-90
2021/05/28 06:02:47;;;;;;;7.80;5.28;;;12.10;99.90;;;;;;6210104;23;20043;-91
2021/05/28 06:05:18;;;;;;;11.95;7.15;;;12.30;99.90;;;;;;6258037;23;20013;-90
2021/05/28 06:07:48;;;;;;;8.15;5.57;;;12.40;99.90;;;;;;6230275;23;20004;-92
2021/05/28 06:10:16;;;;;;;9.30;5.82;;;12.50;99.90;;;;;;6204360;23;20049;-92
2021/05/28 06:12:45;;;;;;;6.32;4.65;;;12.60;99.90;;;;;;6228454;23;20036;-92
2021/05/28 06:15:14;;;;;;;12.32;5.57;;;12.70;99.90;;;;;;6201872;23;20048;-92
2021/05/28 06:17:42;;;;;;;14.20;6.13;;;12.80;99.90;;;;;;6228920;23;20051;-91
2021/05/28 06:20:11;;;;;;;9.30;4.70;;;12.90;99.90;;;;;;6231460;23;20008;-93
2021/05/28 06:22:39;;;;;;;7.70;4.82;;;13.00;99.90;;;;;;6181961;23;20029;-92
2021/05/28 06:25:08;;;;;;;10.60;4.80;;;13.00;99.90;;;;;;6252799;23;20019;-90
2021/05/28 06:27:36;;;;;;;9.95;4.75;;;13.00;99.90;;;;;;6252566;23;20044;-92
2021/05/28 06:30:08;;;;;;;7.57;4.28;;;13.10;99.90;;;;;;6202835;23;20041;-93
2021/05/28 06:32:51;;;;;;;9.18;4.40;;;13.10;99.90;;;;;;6249145;23;20037;-90
2021/05/28 06:35:21;;;;;;;5.97;4.28;;;12.90;99.90;;;;;;6206452;23;20009;-89
2021/05/28 06:37:51;;;;;;;8.35;4.15;;;12.80;99.90;;;;;;6234758;23;20015;-91
2021/05/28 06:40:19;;;;;;;7.30;4.30;;;12.60;99.90;;;;;;6207816;23;20012;-91
2021/05/28 06:42:47;;;;;;;8.38;4.68;;;12.60;99.90;;;;;;6255981;23;20017;-89
2021/05/28 06:45:17;;;;;;;10.95;4.13;;;12.50;99.90;;;;;;6230500;23;20062;-92
2021/05/28 06:47:45;;;;;;;6.85;4.95;;;12.60;99.90;;;;;;6204953;23;20332;-90
2021/05/28 06:50:18;;;;;;;9.70;4.90;;;12.60;99.90;;;;;;6251869;23;20036;-87
2021/05/28 06:52:47;;;;;;;10.52;4.78;;;12.70;99.90;;;;;;6228849;23;20000;-91
2021/05/28 06:55:15;;;;;;;9.00;4.25;;;13.00;99.90;;;;;;6228886;23;20016;-91
2021/05/28 06:57:43;;;;;;;9.20;4.28;;;13.20;99.90;;;;;;6203689;23;20048;-91
2021/05/28 07:00:12;;;;;;;7.55;3.78;;;13.50;99.90;;;;;;6202457;23;20044;-90
2021/05/28 07:02:41;;;;;;;6.60;3.58;;;13.70;99.90;;;;;;6233097;23;20012;-90
2021/05/28 07:05:19;;;;;;;7.80;4.55;;;13.80;99.90;;;;;;6201760;23;20622;-90
2021/05/28 07:07:47;;;;;;;4.65;2.97;;;13.90;99.90;;;;;;6225335;23;20296;-84
2021/05/28 07:10:15;;;;;;;5.60;3.00;;;14.00;99.90;;;;;;6227371;23;20041;-91
2021/05/28 07:12:43;;;;;;;;;;;14.20;99.90;;;;;;6227793;23;20037;-91
2021/05/28 07:15:12;;;;;;;6.03;3.42;;;14.30;99.90;;;;;;6175832;23;19955;-91
2021/05/28 07:18:01;;;;;;;5.88;2.97;;;14.40;99.90;;;;;;6202621;23;20016;-89
2021/05/28 07:20:30;;;;;;;9.10;3.25;;;14.60;99.90;;;;;;6256600;23;20008;-92
2021/05/28 07:23:18;;;;;;;6.90;2.97;;;14.40;99.90;;;;;;6210491;23;20245;-91
2021/05/28 07:26:14;;;;;;;5.20;2.75;;;14.40;99.90;;;;;;6202555;23;20332;-93
2021/05/28 07:32:57;;;;;;;4.97;2.55;;;14.50;99.90;;;;;;6228430;23;20012;-92
2021/05/28 07:35:26;;;;;;;6.07;2.58;;;14.40;99.90;;;;;;6226934;23;20023;-91
2021/05/28 07:37:54;;;;;;;6.43;2.60;;;14.30;99.90;;;;;;6252756;23;20056;-90
2021/05/28 07:40:24;;;;;;;7.60;2.53;;;14.30;99.90;;;;;;6227358;23;20040;-92
2021/05/28 07:42:55;;;;;;;4.57;2.33;;;14.30;99.90;;;;;;6230518;23;20033;-93
2021/05/28 07:46:01;;;;;;;7.30;2.30;;;14.60;99.90;;;;;;6214168;23;20008;-95
2021/05/28 07:48:29;;;;;;;6.55;2.50;;;15.00;99.90;;;;;;6254695;23;20012;-94
2021/05/28 07:50:58;;;;;;;3.67;1.90;;;15.10;99.90;;;;;;6231487;23;20008;-94
2021/05/28 09:06:24;;;;;;;5.22;2.50;;;14.90;99.90;;;;;;6250792;23;20033;-90
2021/05/28 09:08:51;;;;;;;5.30;2.20;;;15.10;99.90;;;;;;6221442;23;20037;-90
2021/05/28 09:11:19;;;;;;;5.40;2.33;;;15.30;99.90;;;;;;6226974;23;20048;-90
2021/05/28 09:13:51;;;;;;;9.40;1.75;;;15.50;99.90;;;;;;6209749;23;20391;-90
2021/05/28 09:36:46;;;;;;;3.53;1.60;;;17.80;91.20;;;;;;6142972;23;20120;-93
2021/05/28 09:39:14;;;;;;;;;;;17.70;82.00;;;;;;6146910;23;20069;-94
2021/05/28 09:41:48;;;;;;;3.42;2.08;;;17.80;79.70;;;;;;6121627;23;19972;-90
2021/05/28 09:44:19;;;;;;;6.82;2.00;;;18.00;78.70;;;;;;6145828;23;20013;-89
2021/05/28 09:47:07;;;;;;;8.73;1.90;;;18.10;78.50;;;;;;6149338;23;20020;-90
2021/05/28 09:49:39;;;;;;;7.53;2.93;;;18.20;76.30;;;;;;6155401;23;20021;-90
2021/05/28 09:52:19;;;;;;;4.65;2.20;;;18.30;78.20;;;;;;6129520;23;20372;-90
2021/05/28 09:54:57;;;;;;;4.70;1.88;;;18.20;76.60;;;;;;6134518;23;20044;-89
2021/05/28 09:57:41;;;;;;;7.90;2.55;;;18.20;78.00;;;;;;6158517;23;20013;-90
2021/05/28 10:00:20;;;;;;;13.18;3.00;;;18.00;75.20;;;;;;6176925;23;20020;-92
2021/05/28 10:03:11;;;;;;;3.17;1.83;;;17.80;78.50;;;;;;6233817;23;20012;-90
2021/05/28 10:05:51;;;;;;;5.28;1.90;;;17.90;77.10;;;;;;6205976;23;20008;-90
2021/05/28 10:08:22;;;;;;;5.50;1.73;;;17.80;77.20;;;;;;6207354;23;20019;-89
2021/05/28 10:10:53;;;;;;;6.10;2.20;;;18.00;76.80;;;;;;6228575;23;20020;-90
2021/05/28 10:13:25;;;;;;;5.90;2.20;;;18.40;75.90;;;;;;6201481;23;20049;-89
2021/05/28 10:15:58;;;;;;;6.32;1.80;;;19.20;72.60;;;;;;6228021;23;20019;-88
2021/05/28 10:18:25;;;;;;;6.53;2.22;;;20.10;65.90;;;;;;6224638;23;20048;-83
2021/05/28 10:20:54;;;;;;;6.38;2.13;;;21.00;66.10;;;;;;6222690;23;20068;-83
2021/05/28 10:23:25;;;;;;;4.82;1.73;;;21.10;64.70;;;;;;6174927;23;20036;-82
2021/05/28 10:25:56;;;;;;;4.68;2.17;;;20.70;64.80;;;;;;6174888;23;20045;-86
2021/05/28 10:28:32;;;;;;;6.03;2.30;;;20.50;65.20;;;;;;6225631;23;20041;-85
2021/05/28 10:31:02;;;;;;;6.55;1.92;;;19.60;62.00;;;;;;6225276;23;20041;-87
2021/05/28 10:33:30;;;;;;;8.23;2.30;;;18.30;66.50;;;;;;6175824;23;20040;-86
2021/05/28 10:35:59;;;;;;;7.10;2.83;;;17.40;67.00;;;;;;6224740;23;20259;-86
2021/05/28 10:38:54;;;;;;;7.53;1.90;;;16.80;69.90;;;;;;6203092;23;20051;-87
2021/05/28 10:41:36;;;;;;;5.50;1.92;;;17.30;72.80;;;;;;6175155;23;20076;-84
2021/05/28 10:44:09;;;;;;;3.50;1.45;;;17.80;73.30;;;;;;6201077;23;20037;-84
2021/05/28 10:46:53;;;;;;;4.38;1.85;;;17.80;68.40;;;;;;6201158;23;20352;-84
2021/05/28 10:49:41;;;;;;;5.82;1.63;;;17.60;67.40;;;;;;6225124;23;20044;-85
2021/05/28 10:52:11;;;;;;;;;;;17.30;68.90;;;;;;6223379;23;20052;-86
2021/05/28 10:54:42;;;;;;;2.63;1.50;;;17.20;72.30;;;;;;6201673;23;19968;-86
2021/05/28 10:57:51;;;;;;;8.18;3.67;;;17.20;76.20;;;;;;6201218;23;20260;-85
2021/05/28 11:00:30;;;;;;;7.15;1.80;;;17.60;76.40;;;;;;6116432;23;20054;-82
2021/05/28 11:03:14;;;;;;;5.00;2.35;;;19.00;68.00;;;;;;6201326;23;20040;-81
2021/05/28 11:05:55;;;;;;;4.35;1.75;;;21.20;61.90;;;;;;6232418;23;20012;-80
2021/05/28 11:08:43;;;;;;;4.15;1.90;;;21.90;57.40;;;;;;6185736;23;20012;-83
2021/05/28 11:11:57;;;;;;;5.28;1.70;;;21.50;57.20;;;;;;6210632;23;20016;-88
2021/05/28 11:14:35;;;;;;;4.07;1.70;;;20.70;59.00;;;;;;6230904;23;20008;-84
2021/05/28 11:17:21;;;;;;;5.90;1.52;;;22.20;56.20;;;;;;6226089;23;20348;-83
2021/05/28 11:19:57;;;;;;;6.25;2.45;;;24.70;49.10;;;;;;6202406;23;20057;-85
2021/05/28 11:22:37;;;;;;;4.10;1.77;;;25.50;45.70;;;;;;6203655;23;20048;-85
2021/05/28 11:25:08;;;;;;;3.17;1.40;;;24.90;43.40;;;;;;6213666;23;20016;-85
2021/05/28 11:27:44;;;;;;;3.40;1.50;;;23.50;45.20;;;;;;6211209;23;20009;-86
2021/05/28 11:30:23;;;;;;;3.67;1.47;;;22.30;47.00;;;;;;6203613;23;20339;-86
2021/05/28 11:32:50;;;;;;;5.72;1.80;;;21.10;49.40;;;;;;6225234;23;20275;-85
2021/05/28 11:35:39;;;;;;;5.53;2.00;;;20.10;52.60;;;;;;6200103;23;20044;-87
2021/05/28 11:38:15;;;;;;;;;;;19.40;55.40;;;;;;6227798;23;20036;-86
2021/05/28 11:40:46;;;;;;;6.40;2.47;;;18.90;56.10;;;;;;6202499;23;19952;-86
2021/05/28 11:43:19;;;;;;;4.75;1.70;;;19.00;57.30;;;;;;6233161;23;20020;-86
2021/05/28 11:45:50;;;;;;;4.55;1.50;;;21.10;55.00;;;;;;6208327;23;20016;-86
2021/05/28 11:48:21;;;;;;;3.67;1.73;;;23.60;51.10;;;;;;6205273;23;20012;-85
2021/05/28 11:50:53;;;;;;;5.65;2.00;;;26.20;44.60;;;;;;6204727;23;20555;-86
2021/05/28 11:53:21;;;;;;;4.00;1.83;;;26.80;43.70;;;;;;6227895;23;20291;-85
2021/05/28 11:55:57;;;;;;;3.85;1.70;;;28.40;42.30;;;;;;6227508;23;20012;-85
2021/05/28 11:58:28;;;;;;;7.20;1.95;;;28.70;39.70;;;;;;6229039;23;20373;-88
2021/05/28 12:00:59;;;;;;;7.43;1.67;;;28.00;41.60;;;;;;6227684;23;20037;-86
2021/05/28 12:03:28;;;;;;;3.35;1.50;;;28.80;39.20;;;;;;6255430;23;20069;-87
2021/05/28 12:05:56;;;;;;;5.95;1.60;;;29.90;36.60;;;;;;6228018;23;20008;-85
2021/05/28 12:08:29;;;;;;;6.60;1.40;;;29.80;36.20;;;;;;6232367;23;20020;-86
2021/05/28 12:11:03;;;;;;;7.78;2.47;;;28.70;36.50;;;;;;6204770;23;20012;-86
2021/05/28 12:13:31;;;;;;;3.70;1.83;;;28.30;35.70;;;;;;6202607;23;20050;-86
2021/05/28 12:16:01;;;;;;;4.70;1.45;;;28.70;36.00;;;;;;6202794;23;20004;-87
2021/05/28 12:18:36;;;;;;;9.02;2.17;;;30.10;35.40;;;;;;6203462;23;20048;-86
2021/05/28 12:21:07;;;;;;;4.25;2.10;;;30.20;34.70;;;;;;6231250;23;20019;-89
2021/05/28 12:23:38;;;;;;;5.90;2.45;;;28.70;35.80;;;;;;6231201;23;20015;-89
2021/05/28 12:26:07;;;;;;;4.55;1.60;;;29.00;37.50;;;;;;6204145;23;20080;-89
2021/05/28 12:28:39;;;;;;;3.35;1.50;;;30.00;35.60;;;;;;6203787;23;20016;-89
2021/05/28 12:31:20;;;;;;;4.32;1.95;;;31.10;33.30;;;;;;6203039;23;20052;-89
2021/05/28 12:33:55;;;;;;;4.03;1.55;;;31.40;33.20;;;;;;6229477;23;20012;-85
2021/05/28 12:36:58;;;;;;;5.97;1.73;;;32.20;32.60;;;;;;6176746;23;20325;-88
2021/05/28 12:39:29;;;;;;;4.28;2.03;;;32.00;32.50;;;;;;6197621;23;20057;-85
2021/05/28 12:42:03;;;;;;;5.45;2.40;;;30.10;34.10;;;;;;6227231;23;20044;-86
2021/05/28 12:44:37;;;;;;;5.53;2.28;;;27.90;36.50;;;;;;6203783;23;20012;-86
2021/05/28 12:47:08;;;;;;;4.65;1.95;;;28.10;36.90;;;;;;6231534;23;20076;-86
2021/05/28 12:49:40;;;;;;;5.53;1.92;;;28.40;36.70;;;;;;6208196;23;20015;-85
2021/05/28 12:52:17;;;;;;;5.72;1.95;;;27.70;37.60;;;;;;6213703;23;20024;-85
2021/05/28 12:55:02;;;;;;;4.45;1.85;;;26.60;37.70;;;;;;6243282;23;20020;-86
2021/05/28 12:57:30;;;;;;;5.03;1.90;;;24.90;39.90;;;;;;6211754;23;20012;-87
2021/05/28 13:00:00;;;;;;;6.05;1.95;;;24.10;41.20;;;;;;6181216;23;20037;-87
2021/05/28 13:02:31;;;;;;;7.63;2.22;;;23.20;42.30;;;;;;6205742;23;20043;-88
2021/05/28 13:05:16;;;;;;;5.35;2.35;;;22.10;45.20;;;;;;6205830;23;20024;-88
2021/05/28 13:07:47;;;;;;;4.47;2.08;;;21.40;47.50;;;;;;6234011;23;20109;-87
2021/05/28 13:10:19;;;;;;;3.88;1.67;;;20.90;48.20;;;;;;6205370;23;20048;-89
2021/05/28 13:12:48;;;;;;;5.63;1.65;;;20.40;48.60;;;;;;6230196;23;20045;-89
2021/05/28 13:15:19;;;;;;;6.63;2.30;;;19.90;50.10;;;;;;6229548;23;20068;-88
2021/05/28 13:17:55;;;;;;;6.60;1.88;;;19.50;51.90;;;;;;6228901;23;20016;-90
2021/05/28 13:20:26;;;;;;;3.42;1.67;;;19.60;52.50;;;;;;6234465;23;20049;-88
2021/05/28 13:22:59;;;;;;;5.53;1.40;;;20.30;50.70;;;;;;6205957;23;20276;-85
2021/05/28 13:25:28;;;;;;;3.47;1.65;;;23.10;46.40;;;;;;6203916;23;20044;-85
2021/05/28 13:28:04;;;;;;;4.88;1.38;;;26.20;41.60;;;;;;6226601;23;20040;-84
2021/05/28 13:30:32;;;;;;;3.33;1.27;;;28.50;37.10;;;;;;6231684;23;20113;-85
2021/05/28 13:33:19;;;;;;;3.38;1.42;;;29.80;34.80;;;;;;6231414;23;20343;-85
2021/05/28 13:36:04;;;;;;;2.88;1.25;;;30.80;33.80;;;;;;6204439;23;20016;-85
2021/05/28 13:38:33;;;;;;;4.55;1.52;;;32.00;32.80;;;;;;6199067;23;20008;-86
2021/05/28 13:41:09;;;;;;;3.10;1.30;;;33.30;32.10;;;;;;6228385;23;20041;-87
2021/05/28 13:43:38;;;;;;;4.93;2.00;;;32.30;31.70;;;;;;6203510;23;20041;-87
2021/05/28 13:46:11;;;;;;;2.75;1.70;;;30.90;32.80;;;;;;6230043;23;20020;-85
2021/05/28 13:48:40;;;;;;;5.80;1.80;;;29.10;35.20;;;;;;6206066;23;20024;-85
2021/05/28 13:51:08;;;;;;;6.38;2.05;;;27.10;37.40;;;;;;6187550;23;20023;-88
2021/05/28 13:53:36;;;;;;;4.50;2.30;;;25.30;40.40;;;;;;6242875;23;20013;-85
2021/05/28 13:56:12;;;;;;;4.38;2.05;;;23.80;42.30;;;;;;6213797;23;20024;-87
2021/05/28 13:58:39;;;;;;;3.92;2.20;;;22.80;44.20;;;;;;6229703;23;20063;-88
2021/05/28 14:01:08;;;;;;;5.28;1.95;;;22.20;44.50;;;;;;6202989;23;20041;-86
2021/05/28 14:03:35;;;;;;;3.80;1.70;;;22.80;43.00;;;;;;6203210;23;20044;-84
2021/05/28 14:06:06;;;;;;;5.50;1.40;;;23.50;40.90;;;;;;6251875;23;20036;-86
2021/05/28 14:08:34;;;;;;;6.82;3.25;;;24.30;39.70;;;;;;6199834;23;20064;-85
2021/05/28 14:11:25;;;;;;;4.03;1.23;;;26.10;38.90;;;;;;6225859;23;20052;-87
2021/05/28 14:13:53;;;;;;;3.75;1.30;;;28.70;35.80;;;;;;6226758;23;20264;-85
2021/05/28 14:16:20;;;;;;;7.68;1.85;;;30.20;33.80;;;;;;6228601;23;20016;-80
2021/05/28 14:18:52;;;;;;;3.92;1.80;;;31.30;33.30;;;;;;6204782;23;20341;-84
2021/05/28 14:21:21;;;;;;;4.55;1.50;;;31.60;31.80;;;;;;6232383;23;20368;-87
2021/05/28 14:23:51;;;;;;;2.55;1.10;;;32.70;30.60;;;;;;6216617;23;20001;-87
2021/05/28 14:26:23;;;;;;;2.20;1.10;;;33.50;30.10;;;;;;6244046;23;20016;-87
2021/05/28 14:28:54;;;;;;;3.63;1.35;;;32.60;30.00;;;;;;6217395;23;20008;-86
2021/05/28 14:31:30;;;;;;;4.28;1.70;;;30.70;32.20;;;;;;6240853;23;20009;-87
2021/05/28 14:33:58;;;;;;;5.53;1.38;;;28.80;33.90;;;;;;6204050;23;20019;-87
2021/05/28 14:36:32;;;;;;;2.88;1.58;;;27.30;35.90;;;;;;6204350;23;20016;-85
2021/05/28 14:39:08;;;;;;;3.63;1.55;;;25.90;37.60;;;;;;6227422;23;20044;-87
2021/05/28 14:41:42;;;;;;;2.75;1.50;;;24.70;39.20;;;;;;6202218;23;20052;-87
2021/05/28 14:44:16;;;;;;;5.60;2.00;;;23.70;41.20;;;;;;6220335;23;20056;-87
2021/05/28 14:47:08;;;;;;;3.28;1.25;;;22.90;42.90;;;;;;6226845;23;20036;-84
2021/05/28 14:49:41;;;;;;;9.27;1.63;;;22.30;43.70;;;;;;6226057;23;20041;-85
2021/05/28 14:52:14;;;;;;;3.45;2.00;;;21.80;44.60;;;;;;6204568;23;20017;-85
2021/05/28 14:54:42;;;;;;;4.40;1.95;;;21.40;45.00;;;;;;6237512;23;20019;-87
2021/05/28 14:57:12;;;;;;;4.63;1.90;;;21.20;45.60;;;;;;6204243;23;20044;-86
2021/05/28 14:59:39;;;;;;;3.85;1.90;;;21.10;45.10;;;;;;6239720;23;20004;-85
2021/05/28 15:02:13;;;;;;;4.75;1.67;;;21.40;45.50;;;;;;6211250;23;20009;-86
2021/05/28 15:04:40;;;;;;;3.20;1.50;;;21.50;45.50;;;;;;6239243;23;20036;-84
2021/05/28 15:07:12;;;;;;;10.75;6.28;;;21.60;45.60;;;;;;6218828;23;20008;-84
2021/05/28 15:09:41;;;;;;;4.28;2.30;;;21.80;44.90;;;;;;6244907;22;20016;-84
2021/05/28 15:12:13;;;;;;;6.25;2.00;;;21.90;45.00;;;;;;6219752;23;20007;-85
2021/05/28 15:14:43;;;;;;;4.75;1.65;;;21.80;45.80;;;;;;6234513;23;20012;-85
2021/05/28 15:17:13;;;;;;;4.75;2.50;;;21.90;46.00;;;;;;6208417;23;20012;-85
2021/05/28 15:19:46;;;;;;;4.18;1.88;;;22.90;45.00;;;;;;6226584;23;20242;-85
2021/05/28 15:22:18;;;;;;;3.20;1.42;;;25.40;41.70;;;;;;6201170;23;20328;-85
2021/05/28 15:24:49;;;;;;;3.97;1.42;;;28.00;38.00;;;;;;6226723;23;20100;-84
2021/05/28 15:27:29;;;;;;;3.55;1.35;;;29.50;35.00;;;;;;6228088;23;20335;-84
2021/05/28 15:30:01;;;;;;;3.30;1.40;;;30.50;33.60;;;;;;6206229;23;20114;-86
2021/05/28 15:32:29;;;;;;;3.58;1.10;;;31.70;32.40;;;;;;6207379;23;20072;-85
2021/05/28 15:34:57;;;;;;;3.88;1.48;;;31.20;31.60;;;;;;6237767;23;20013;-85
2021/05/28 15:37:26;;;;;;;2.83;1.52;;;29.70;32.90;;;;;;6232969;23;20321;-85
2021/05/28 15:39:57;;;;;;;2.72;1.30;;;28.10;34.40;;;;;;6232184;23;20021;-85
2021/05/28 15:42:25;;;;;;;8.40;2.30;;;26.60;35.80;;;;;;6207394;23;20221;-86
2021/05/28 15:44:57;;;;;;;7.38;1.70;;;25.60;37.70;;;;;;6233862;23;20012;-86
2021/05/28 15:47:25;;;;;;;4.75;1.38;;;24.40;39.00;;;;;;6202274;23;20012;-86
2021/05/28 15:49:55;;;;;;;9.93;2.20;;;23.40;40.80;;;;;;6226119;23;20326;-86
2021/05/28 15:52:22;;;;;;;5.18;1.77;;;22.20;48.40;;;;;;6230902;23;20023;-86
2021/05/28 15:54:52;;;;;;;3.88;1.85;;;20.80;53.80;;;;;;6207220;23;20054;-89
2021/05/28 15:57:20;;;;;;;4.80;2.00;;;20.00;57.20;;;;;;6236072;23;20024;-88
2021/05/28 15:59:49;;;;;;;6.85;1.90;;;19.60;59.50;;;;;;6210926;23;20023;-89
2021/05/28 16:02:17;;;;;;;3.50;1.20;;;19.50;58.70;;;;;;6233538;23;20308;-89
2021/05/28 16:04:45;;;;;;;11.40;2.17;;;19.50;58.10;;;;;;6230288;23;20021;-88
2021/05/28 16:07:12;;;;;;;5.35;1.77;;;19.40;58.80;;;;;;6204776;23;20009;-85
2021/05/28 16:09:40;;;;;;;4.63;1.50;;;19.40;58.60;;;;;;6231314;23;20012;-87
2021/05/28 16:12:10;;;;;;;4.55;1.27;;;19.30;58.10;;;;;;6204537;23;20008;-89
2021/05/28 16:14:37;;;;;;;4.07;1.83;;;18.80;58.80;;;;;;6202020;23;20049;-90
2021/05/28 16:17:07;;;;;;;5.18;1.50;;;18.20;61.90;;;;;;6204710;23;20335;-91
2021/05/28 16:19:35;;;;;;;5.15;1.60;;;17.80;65.30;;;;;;6201767;23;20061;-90
2021/05/28 16:22:03;;;;;;;5.22;1.70;;;17.60;70.40;;;;;;6226089;23;20040;-88
2021/05/28 16:24:37;;;;;;;6.63;1.48;;;17.30;74.90;;;;;;6200125;23;20048;-88
2021/05/28 16:27:05;;;;;;;8.35;2.28;;;17.20;81.30;;;;;;6224133;23;20040;-86
2021/05/28 16:29:34;;;;;;;3.03;1.40;;;17.10;85.50;;;;;;6200213;23;20352;-88
2021/05/28 16:32:02;;;;;;;5.57;1.67;;;17.00;89.50;;;;;;6226772;23;20335;-88
2021/05/28 16:34:29;;;;;;;4.73;1.80;;;16.80;94.20;;;;;;6200680;23;20015;-88
2021/05/28 16:36:58;;;;;;;4.73;1.50;;;16.70;99.90;;;;;;6227128;23;20045;-88
2021/05/28 16:39:26;;;;;;;;;;;16.40;99.90;;;;;;6200797;23;20044;-89
2021/05/28 16:42:00;;;;;;;4.35;2.00;;;16.20;99.90;;;;;;6204078;23;19987;-89
2021/05/28 16:44:28;;;;;;;3.60;1.80;;;16.20;99.90;;;;;;6205630;23;20012;-90
2021/05/28 16:46:57;;;;;;;4.68;1.90;;;16.40;99.90;;;;;;6202173;23;20012;-90
2021/05/28 16:49:28;;;;;;;3.58;2.15;;;16.70;99.90;;;;;;6225337;23;20045;-88
2021/05/28 16:51:55;;;;;;;4.30;1.80;;;17.30;99.90;;;;;;6175954;23;20044;-88
2021/05/28 16:54:23;;;;;;;3.47;1.90;;;18.30;96.90;;;;;;6251530;23;20048;-87
2021/05/28 16:56:51;;;;;;;5.85;2.47;;;18.80;96.50;;;;;;6209570;23;20009;-87
2021/05/28 16:59:18;;;;;;;4.85;2.08;;;18.90;95.60;;;;;;6202120;23;20012;-88
2021/05/28 17:01:46;;;;;;;4.63;1.80;;;19.70;94.30;;;;;;6201488;23;20048;-87
2021/05/28 17:04:14;;;;;;;5.70;1.90;;;21.30;89.80;;;;;;6225851;23;20016;-86
2021/05/28 17:06:41;;;;;;;3.45;1.40;;;22.90;75.80;;;;;;6226597;23;20011;-88
2021/05/28 17:09:09;;;;;;;2.88;1.30;;;24.40;64.70;;;;;;6228575;23;20009;-86
2021/05/28 17:11:37;;;;;;;3.25;1.60;;;25.30;58.40;;;;;;6250194;23;20049;-85
2021/05/28 17:14:04;;;;;;;3.13;1.33;;;25.70;56.00;;;;;;6228822;23;20019;-86
2021/05/28 17:16:32;;;;;;;6.03;1.70;;;25.30;55.50;;;;;;6180364;23;20019;-87